Huvudsida
METAR-TAF:

METAR-TAF

Flygplatser :

Kushiro, Japan

latitud: 43-02N, longitud: 144-12E, höjd: 95 m

Aktuellt väderrapport

Denna rapport gjordes för 31 minuter sedan, klockan 06:00 UTC
Vind 13 kt från sydväst
Temperatur 25°C
Fuktighet 83%
Tryck 1000 hPa
Sikt 10 km eller mer
Få moln på en höjd av 3000 ft
Spridda moln på en höjd av 12000 ft
Brutna moln på en höjd av 15000 ft

METAR: RJCK 230600Z 22013KT 9999 FEW030 SCT120 BKN150 25/22 Q1000

Tid: 15:31 (06:31 UTC)

Väderprognos

Denna rapport gjordes för 1 timme och 15 minuter sedan, klockan 05:16 UTC
Prognos gäller från 23 kl. 06 UTC till 24 kl. 12 UTC
Vind 11 kt från sydväst
Sikt 10 km eller mer
Få moln på en höjd av 1500 ft
Brutna moln på en höjd av 3000 ft
Blir
från 24 kl. 03 UTC till 24 kl. 06 UTC
Vind 5 kt från nord

TAF: RJCK 230516Z 2306/2412 22011KT 9999 FEW015 BKN030 BECMG 2403/2406 36005KT

Aktuella väderrapporter och prognoser från 4000 flygplatser (METAR- och TAF-rapporter).

De tillgängliga stationerna syns som gula och röda prickar på kartan.

För musen över prickarna för att se namnen på stationerna.

Klicka sedan för att få väderrapporter och prognoser.

För att ändra kartan: Klicka på de gröna knapparna med ett svart kors på för att zooma in; den gröna knappen med ett streck på för att zooma ut; eller på de gröna pilarna för angränsande kartor.


METAR-TAF: